Los Posos, Valles Caldera, New Mexico Weather observations

Data are for 10 minute period ending at time listed.
 Day   Time   Solar   Ave.   Ave.  Ave.  Vector  Max.   Baro.   Total    
  of    of     Rad.   Air    Rel.  Wind   Wind   Wind  Press.  Precip.   
Year   Day            Temp.  Hum.  Speed  Dir.   Gust                    
2017   (MST)  Kw/m2    F      %     mph   deg.    mph    mb.     in.     
-------------------------------------------------------------------------
 325   16:30   0.03   45.7    30    4.3   190     7.8   99999.0    0.00 
 325   16:40   0.02   45.2    31    4.3   200     9.0   99999.0    0.00 
 325   16:50   0.01   44.4    31    3.3   196     5.4   99999.0    0.00 
 325   17:00   0.00   43.4    32    3.5   186     6.0   99999.0    0.00 
 325   17:10   0.00   41.8    34    2.0   163     4.2   99999.0    0.00 
 325   17:20   0.00   37.9    39    1.9   270     3.6   99999.0    0.00 
 325   17:30   0.00   35.6    44    1.7   201     3.0   99999.0    0.00 
 325   17:40   0.00   34.9    44    2.1   220     3.6   99999.0    0.00 
 325   17:50   0.00   32.3    50    1.2   234     3.0   99999.0    0.00 
 325   18:00   0.00   31.0    52    2.4    31     4.8   99999.0    0.00 
 325   18:10   0.00   29.4    55    2.7   234     4.2   99999.0    0.00 
 325   18:20   0.00   28.8    56    1.4   248     2.4   99999.0    0.00 
 325   18:30   0.00   29.3    57    2.3   164     4.2   99999.0    0.00 
 325   18:40   0.00   28.9    57    2.7   250     4.2   99999.0    0.00 
 325   18:50   0.00   28.1    58    1.7   335     3.6   99999.0    0.00 
 325   19:00   0.00   27.9    61    2.6   149     7.8   99999.0    0.00 
 325   19:10   0.00   31.5    54    3.6   217     7.2   99999.0    0.00 
 325   19:20   0.00   35.5    46    4.8   200    11.3   99999.0    0.00 
 325   19:30   0.00   36.5    44    4.0   158     6.6   99999.0    0.00 
 325   19:40   0.00   35.5    45    3.2   126     6.0   99999.0    0.00 
 325   19:50   0.00   33.1    49    2.2    17     3.6   99999.0    0.00 
 325   20:00   0.00   29.4    56    2.2   310     3.6   99999.0    0.00 
 325   20:10   0.00   30.0    56    3.3   180     7.2   99999.0    0.00 
 325   20:20   0.00   29.2    56    2.5    25     4.2   99999.0    0.00 
 325   20:30   0.00   27.4    62    2.8   117     4.2   99999.0    0.00 
 325   20:40   0.00   30.9    56    2.7   132     4.8   99999.0    0.00 
 325   20:50   0.00   27.7    59    2.5   348     5.4   99999.0    0.00 
 325   21:00   0.00   25.1    66    2.5   195     4.2   99999.0    0.00 
 325   21:10   0.00   24.9    67    2.0   359     4.8   99999.0    0.00 
 325   21:20   0.00   24.5    68    2.1   246     4.8   99999.0    0.00 
 325   21:30   0.00   25.6    66    2.0   224     4.2   99999.0    0.00 
 325   21:40   0.00   25.8    65    0.7    29     2.4   99999.0    0.00 
 325   21:50   0.00   24.3    68    1.2   220     3.6   99999.0    0.00 
 325   22:00   0.00   23.4    70    2.6   241     4.8   99999.0    0.00 
 325   22:10   0.00   23.5    70    2.3   249     4.2   99999.0    0.00 
 325   22:20   0.00   22.4    72    1.5   230     2.4   99999.0    0.00 
 325   22:30   0.00   22.3    72    1.5   238     3.6   99999.0    0.00 
 325   22:40   0.00   23.1    72    1.0   175     3.0   99999.0    0.00 
 325   22:50   0.00   22.5    73    0.9   278     2.4   99999.0    0.00 
 325   23:00   0.00   21.7    75    2.4   244     4.2   99999.0    0.00 
 325   23:10   0.00   22.6    75    2.3    90     4.2   99999.0    0.00 
 325   23:20   0.00   21.7    75    1.3   251     3.0   99999.0    0.00 
 325   23:30   0.00   21.9    77    1.4   101     3.0   99999.0    0.00 
 325   23:40   0.00   21.4    76    0.4   238     1.8   99999.0    0.00 
 325   23:50   0.00   20.9    77    1.8   248     3.6   99999.0    0.00 
 326    0:00   0.00   20.4    80    2.4   232     3.6   99999.0    0.00 
 326    0:10   0.00   20.3    81    1.7   289     4.2   99999.0    0.00 
 326    0:20   0.00   19.5    81    1.6   254     3.0   99999.0    0.00 
 326    0:30   0.00   19.3    84    0.0     0     0.0   99999.0    0.00 
 326    0:40   0.00   19.6    82    2.5   247     4.8   99999.0    0.00 
 326    0:50   0.00   19.3    85    1.8    48     3.0   99999.0    0.00 
 326    1:00   0.00   19.4    82    1.3   259     3.6   99999.0    0.00 
 326    1:10   0.00   19.1    83    0.9   241     2.4   99999.0    0.00 
 326    1:20   0.00   19.2    82    2.0   253     3.6   99999.0    0.00 
 326    1:30   0.00   18.7    84    1.3   248     3.0   99999.0    0.00 
 326    1:40   0.00   18.9    83    0.5   260     3.0   99999.0    0.00 
 326    1:50   0.00   18.8    83    1.6   279     3.0   99999.0    0.00 
 326    2:00   0.00   18.7    85    0.8   305     3.0   99999.0    0.00 
 326    2:10   0.00   18.8    84    0.0     0     0.0   99999.0    0.00 
 326    2:20   0.00   18.5    85    0.0     0     0.0   99999.0    0.00 
 326    2:30   0.00   18.4    84    2.1   246     3.6   99999.0    0.00 
 326    2:40   0.00   18.6    84    0.3   242     1.8   99999.0    0.00 
 326    2:50   0.00   18.1    84    0.2   330     1.8   99999.0    0.00 
 326    3:00   0.00   18.1    85    1.2   272     2.4   99999.0    0.00 
 326    3:10   0.00   18.5    85    1.6   305     3.0   99999.0    0.00 
 326    3:20   0.00   19.0    84    1.6   290     3.6   99999.0    0.00 
 326    3:30   0.00   18.6    84    0.6   248     2.4   99999.0    0.00 
 326    3:40   0.00   18.7    84    0.0     0     0.0   99999.0    0.00 
 326    3:50   0.00   18.9    85    0.0     0     0.0   99999.0    0.00 
 326    4:00   0.00   19.4    84    0.0     0     0.0   99999.0    0.00 
 326    4:10   0.00   19.8    84    1.3   238     2.4   99999.0    0.00 
 326    4:20   0.00   20.2    84    1.4   313     3.6   99999.0    0.00 
 326    4:30   0.00   20.0    84    1.2   268     3.0   99999.0    0.00 
 326    4:40   0.00   20.1    84    0.9   236     3.0   99999.0    0.00 
 326    4:50   0.00   20.4    83    0.0     0     0.0   99999.0    0.00 
 326    5:00   0.00   20.1    85    0.6   240     3.0   99999.0    0.00 
 326    5:10   0.00   20.6    84    0.0     0     0.0   99999.0    0.00 
 326    5:20   0.00   20.6    85    0.0     0     0.0   99999.0    0.00 
 326    5:30   0.00   20.7    84    0.9   253     3.6   99999.0    0.00 
 326    5:40   0.00   20.5    84    0.4   239     1.8   99999.0    0.00 
 326    5:50   0.00   20.4    86    0.1   256     1.8   99999.0    0.00 
 326    6:00   0.00   20.4    85    1.3   247     3.6   99999.0    0.00 
 326    6:10   0.00   20.5    86    0.9   234     3.0   99999.0    0.00 
 326    6:20   0.00   20.7    86    1.8   238     3.6   99999.0    0.00 
 326    6:30   0.00   20.6    87    0.6   232     3.0   99999.0    0.00 
 326    6:40   0.00   20.7    86    0.0   236     1.2   99999.0    0.00 
 326    6:50   0.00   21.1    87    0.0   242     1.2   99999.0    0.00 
 326    7:00   0.00   21.2    86    0.0   230     1.2   99999.0    0.00 
 326    7:10   0.01   21.4    87    0.0     0     0.0   99999.0    0.00 
 326    7:20   0.03   22.2    86    0.0     0     0.0   99999.0    0.00 
 326    7:30   0.04   23.0    85    0.0   246     1.2   99999.0    0.00 
 326    7:40   0.05   24.1    84    0.0   247     1.2   99999.0    0.00 
 326    7:50   0.05   25.0    84    0.0     0     0.0   99999.0    0.00 
 326    8:00   0.08   26.0    82    0.0     0     0.0   99999.0    0.00 
 326    8:10   0.19   28.4    84    0.0     0     0.0   99999.0    0.00 
 326    8:20   0.24   35.0    73    0.0    20     1.2   99999.0    0.00 
 326    8:30   0.20   36.8    70    0.0   346     1.2   99999.0    0.00 
 326    8:40   0.15   38.5    67    0.0    21     1.2   99999.0    0.00 
 326    8:50   0.22   37.8    67    2.0   182     5.4   99999.0    0.00 
 326    9:00   0.20   36.8    61    4.1   156     6.0   99999.0    0.00 
 326    9:10   0.23   39.1    58    2.0   155     4.2   99999.0    0.00 
 326    9:20   0.29   43.4    52    0.2   337     1.8   99999.0    0.00 
 326    9:30   0.39   50.6    43    1.3    14     3.0   99999.0    0.00 
 326    9:40   0.42   54.5    30    2.0    47     4.2   99999.0    0.00 
 326    9:50   0.44   55.2    28    2.8    65     6.0   99999.0    0.00 
 326   10:00   0.46   55.5    27    2.5   123     6.6   99999.0    0.00 
 326   10:10   0.47   57.1    22    5.4   324     7.2   99999.0    0.00 
 326   10:20   0.50   55.9    22    5.6   313    10.2   99999.0    0.00 
 326   10:30   0.51   57.2    21    5.8   320     9.6   99999.0    0.00 
 326   10:40   0.47   55.3    22    5.5   289     9.0   99999.0    0.00 
 326   10:50   0.57   55.3    22    7.5   295    12.5   99999.0    0.00 
 326   11:00   0.52   57.0    20    8.2   322    14.3   99999.0    0.00 
 326   11:10   0.55   57.5    20    7.3   316    11.3   99999.0    0.00 
 326   11:20   0.56   57.3    20    8.2   306    12.5   99999.0    0.00 
 326   11:30   0.58   57.6    20    8.3   315    16.1   99999.0    0.00 
 326   11:40   0.60   59.0    20    8.2   320    11.9   99999.0    0.00 
 326   11:50   0.61   59.5    19    8.9   322    13.7   99999.0    0.00 
 326   12:00   0.62   59.7    19    8.2   319    11.9   99999.0    0.00 
 326   12:10   0.61   62.3    21    6.1    24    10.8   99999.0    0.00 
 326   12:20   0.60   63.7    20    4.4    22     8.4   99999.0    0.00 
 326   12:30   0.59   63.5    18    5.3   349    13.7   99999.0    0.00 
 326   12:40   0.52   61.9    18    7.2   327    14.3   99999.0    0.00 
 326   12:50   0.57   62.8    17    6.2   328    10.8   99999.0    0.00 
 326   13:00   0.57   62.2    17    6.8   321    11.3   99999.0    0.00 
 326   13:10   0.56   62.1    17    6.4   320    10.8   99999.0    0.00 
 326   13:20   0.54   62.7    17    6.0   324    11.3   99999.0    0.00 
 326   13:30   0.52   61.2    18    7.5   319    12.5   99999.0    0.00 
 326   13:40   0.51   63.8    20    4.8    15     9.0   99999.0    0.00 
 326   13:50   0.49   65.5    19    4.8    29     7.2   99999.0    0.00 
 326   14:00   0.42   61.5    21    4.2   103     7.2   99999.0    0.00 
 326   14:10   0.43   59.7    24    3.8   176     7.8   99999.0    0.00 
 326   14:20   0.43   57.9    26    6.2   172    11.3   99999.0    0.00 
 326   14:30   0.42   57.4    27    5.1   153     8.4   99999.0    0.01 
 326   14:40   0.36   59.3    25    3.4   157     6.6   99999.0    0.00 
 326   14:50   0.30   59.9    24    3.8   114     8.4   99999.0    0.01 
 326   15:00   0.33   59.9    22    5.5   308    11.3   99999.0    0.00 
 326   15:10   0.31   61.0    20    5.5   313    10.8   99999.0    0.00 
 326   15:20   0.28   59.1    22    8.2   305    12.5   99999.0    0.01 
 326   15:30   0.25   58.4    23    8.5   318    14.3   99999.0    0.00 
 326   15:40   0.23   59.7    22    7.7   328    11.9   99999.0    0.00 
 326   15:50   0.18   59.0    23    7.0   319    11.3   99999.0    0.00 
 326   16:00   0.07   56.1    25    7.3   316    13.1   99999.0    0.00 
 326   16:10   0.02   52.8    28    5.9   332    10.2   99999.0    0.00 
 326   16:20   0.01   51.4    30    4.9   350     7.8   99999.0    0.00 

Return to Los Posos, Valles Caldera graphs page.


Western Regional Climate Center,wrcc@dri.edu